Villa La Angostura, Argentina
Current Conditions -  °F | °C
As of 3:00 PM on Thursday 30 Oct 2014 (Local Time) from SAZS Reporting Station
Rain Showers Rain Showers  
Wind Chill: 35°   Ceiling: Unl
Heat Index: 45°   Visibility: 6mi
Dew Point: 28°   Wind: 31mph
Humidity: 53%   Direction: 320°NW
Pressure: 29.83"   Gusts: 46mph
Location:  40.78°S, 71.67°W
Report Text: SAZS 301800Z 32027G40KT 9000 VCSH SCT030SCT040 07/M02 Q1010
Loading
Personal Weather Stations






























Interactive Weather Map
Tropical Storm Tracking
New forecast layout! Learn more

10-Day Weather Forecast

Advertisements
Track Severe Weather on mobile